Time;durP1;ratioP1;P1;durP2;ratioP2;P2;SDS_P1;SDS_P2;PMS_P1;PMS_P2;Temp;Humidity;BMP_temperature;BMP_pressure;BME280_temperature;BME280_humidity;BME280_pressure;Samples;Min_cycle;Max_cycle;Signal;HPM_P1;HPM_P2
2023/11/17 00:01:04;;;;;;;0.60;0.30;;;6.00;99.90;;;;;;5097097;28;20505;-80
2023/11/17 00:03:31;;;;;;;0.60;0.47;;;6.00;99.90;;;;;;5096832;28;20439;-80
2023/11/17 00:05:59;;;;;;;0.40;0.30;;;5.90;99.90;;;;;;5096878;28;20505;-80
2023/11/17 00:08:25;;;;;;;0.30;0.30;;;5.90;99.90;;;;;;5096660;28;20447;-80
2023/11/17 00:10:52;;;;;;;0.50;0.50;;;5.90;99.90;;;;;;5097645;28;20503;-79
2023/11/17 00:13:19;;;;;;;0.33;0.30;;;5.90;99.90;;;;;;5096474;28;20480;-79
2023/11/17 00:15:46;;;;;;;2.70;0.40;;;5.90;99.90;;;;;;5096529;28;20468;-78
2023/11/17 00:18:14;;;;;;;0.40;0.33;;;5.80;99.90;;;;;;5096582;28;20444;-79
2023/11/17 00:20:41;;;;;;;0.43;0.30;;;5.70;99.90;;;;;;5096576;28;20483;-79
2023/11/17 00:23:07;;;;;;;0.40;0.40;;;5.70;99.90;;;;;;5096435;28;20451;-79
2023/11/17 00:25:34;;;;;;;0.40;0.40;;;5.70;99.90;;;;;;5095987;28;20483;-79
2023/11/17 00:28:01;;;;;;;0.37;0.30;;;5.70;99.90;;;;;;5096005;28;20932;-79
2023/11/17 00:30:28;;;;;;;0.50;0.50;;;5.70;99.90;;;;;;5096713;28;20448;-79
2023/11/17 00:32:54;;;;;;;0.40;0.30;;;5.60;99.90;;;;;;5097242;28;20810;-80
2023/11/17 00:35:23;;;;;;;0.40;0.40;;;5.60;99.90;;;;;;5096300;28;20921;-80
2023/11/17 00:37:51;;;;;;;0.30;0.30;;;5.60;99.90;;;;;;5096204;28;20463;-80
2023/11/17 00:40:18;;;;;;;0.30;0.20;;;5.60;99.90;;;;;;5096166;28;20539;-80
2023/11/17 00:42:44;;;;;;;0.30;0.30;;;5.60;99.90;;;;;;5096197;28;20448;-80
2023/11/17 00:45:11;;;;;;;0.37;0.30;;;5.50;99.90;;;;;;5095641;28;20539;-80
2023/11/17 00:47:38;;;;;;;0.30;0.20;;;5.50;99.90;;;;;;5095777;28;20436;-80
2023/11/17 00:50:10;;;;;;;0.30;0.30;;;5.40;99.90;;;;;;5095919;28;20444;-79
2023/11/17 00:52:39;;;;;;;0.50;0.40;;;5.40;99.90;;;;;;5095831;28;20420;-79
2023/11/17 00:55:07;;;;;;;0.30;0.20;;;5.50;99.90;;;;;;5095323;28;20906;-79
2023/11/17 00:57:34;;;;;;;0.40;0.40;;;5.50;99.90;;;;;;5095589;28;20962;-79
2023/11/17 01:00:01;;;;;;;0.40;0.40;;;5.40;99.90;;;;;;5096184;28;20446;-79
2023/11/17 01:02:27;;;;;;;0.87;0.30;;;5.40;99.90;;;;;;5095431;28;20970;-79
2023/11/17 01:04:54;;;;;;;0.40;0.33;;;5.30;99.90;;;;;;5095303;28;20462;-79
2023/11/17 01:07:21;;;;;;;0.30;0.20;;;5.40;99.90;;;;;;5095310;28;20948;-79
2023/11/17 01:09:49;;;;;;;1.70;0.53;;;5.30;99.90;;;;;;5095519;28;20444;-79
2023/11/17 01:12:16;;;;;;;0.50;0.50;;;5.40;99.90;;;;;;5095432;28;20807;-79
2023/11/17 01:14:42;;;;;;;0.70;0.40;;;5.40;99.90;;;;;;5094944;28;20485;-79
2023/11/17 01:17:11;;;;;;;0.30;0.30;;;5.40;99.90;;;;;;5095368;28;20432;-79
2023/11/17 01:19:39;;;;;;;1.17;0.83;;;5.30;99.90;;;;;;5095346;28;20444;-79
2023/11/17 01:22:06;;;;;;;0.30;0.30;;;5.30;99.90;;;;;;5095185;28;20811;-79
2023/11/17 01:24:34;;;;;;;0.30;0.30;;;5.30;99.90;;;;;;5094760;28;20851;-79
2023/11/17 01:27:04;;;;;;;0.30;0.30;;;5.30;99.90;;;;;;5095033;28;20413;-79
2023/11/17 01:29:31;;;;;;;0.40;0.40;;;5.40;99.90;;;;;;5095256;28;20424;-79
2023/11/17 01:31:58;;;;;;;1.13;0.50;;;5.40;99.90;;;;;;5095097;28;20448;-79
2023/11/17 01:34:26;;;;;;;0.30;0.30;;;5.40;99.90;;;;;;5094583;28;20487;-79
2023/11/17 01:36:53;;;;;;;0.33;0.33;;;5.40;99.90;;;;;;5094915;28;20480;-79
2023/11/17 01:39:20;;;;;;;0.50;0.50;;;5.40;99.90;;;;;;5095008;28;20447;-79
2023/11/17 01:41:47;;;;;;;0.40;0.40;;;5.50;99.90;;;;;;5094736;28;20447;-79
2023/11/17 01:44:16;;;;;;;0.60;0.40;;;5.40;99.90;;;;;;5095662;28;20463;-79
2023/11/17 01:46:43;;;;;;;0.30;0.30;;;5.40;99.90;;;;;;5095637;28;20440;-79
2023/11/17 01:49:12;;;;;;;0.47;0.33;;;5.40;99.90;;;;;;5094897;28;20448;-79
2023/11/17 01:51:39;;;;;;;0.50;0.50;;;5.40;99.90;;;;;;5094699;28;20451;-79
2023/11/17 01:54:06;;;;;;;0.50;0.40;;;5.40;99.90;;;;;;5094497;28;20479;-79
2023/11/17 01:56:34;;;;;;;0.30;0.30;;;5.40;99.90;;;;;;5094228;28;20932;-79
2023/11/17 01:59:01;;;;;;;0.40;0.40;;;5.50;99.90;;;;;;5094195;28;20958;-79
2023/11/17 02:01:30;;;;;;;0.40;0.40;;;5.40;99.90;;;;;;5094169;28;20535;-79
2023/11/17 02:03:59;;;;;;;1.07;0.40;;;5.40;99.90;;;;;;5094365;28;20523;-79
2023/11/17 02:06:35;;;;;;;0.87;0.50;;;5.50;99.90;;;;;;5093412;28;20444;-79
2023/11/17 02:09:13;;;;;;;0.60;0.40;;;5.40;99.90;;;;;;5094401;28;20485;-79
2023/11/17 02:11:44;;;;;;;0.43;0.43;;;5.40;99.90;;;;;;5094305;28;20443;-79
2023/11/17 02:14:21;;;;;;;1.00;0.33;;;5.40;99.90;;;;;;5093898;28;20522;-79
2023/11/17 02:16:51;;;;;;;0.33;0.30;;;5.40;99.90;;;;;;5094380;28;20435;-79
2023/11/17 02:19:28;;;;;;;0.83;0.30;;;5.40;99.90;;;;;;5094179;28;20448;-79
2023/11/17 02:21:58;;;;;;;0.60;0.50;;;5.40;99.90;;;;;;5094261;28;20431;-79
2023/11/17 02:24:30;;;;;;;0.40;0.40;;;5.40;99.90;;;;;;5093923;28;20983;-79
2023/11/17 02:27:06;;;;;;;0.40;0.40;;;5.40;99.90;;;;;;5094284;28;20481;-79
2023/11/17 02:29:37;;;;;;;0.67;0.40;;;5.30;99.90;;;;;;5094734;28;20447;-79
2023/11/17 02:32:04;;;;;;;0.50;0.50;;;5.30;99.90;;;;;;5094103;28;20433;-79
2023/11/17 02:34:32;;;;;;;2.40;0.57;;;5.30;99.90;;;;;;5093875;28;20872;-79
2023/11/17 02:37:05;;;;;;;0.50;0.40;;;5.40;99.90;;;;;;5094041;28;20895;-79
2023/11/17 02:39:36;;;;;;;0.90;0.40;;;5.30;99.90;;;;;;5093951;28;20435;-79
2023/11/17 02:42:10;;;;;;;0.33;0.33;;;5.30;99.90;;;;;;5093547;28;20451;-79
2023/11/17 02:44:40;;;;;;;0.40;0.40;;;5.30;99.90;;;;;;5093781;28;20468;-79
2023/11/17 02:47:09;;;;;;;0.40;0.40;;;5.30;99.90;;;;;;5094635;28;20432;-79
2023/11/17 02:49:40;;;;;;;0.30;0.27;;;5.30;99.90;;;;;;5094556;28;20443;-79
2023/11/17 02:52:09;;;;;;;1.30;0.50;;;5.30;99.90;;;;;;5093829;28;20448;-79
2023/11/17 02:54:36;;;;;;;0.30;0.30;;;5.30;99.90;;;;;;5093524;28;20900;-79
2023/11/17 02:57:05;;;;;;;0.40;0.40;;;5.30;99.90;;;;;;5093733;28;20451;-79
2023/11/17 02:59:35;;;;;;;0.37;0.30;;;5.30;99.90;;;;;;5094683;28;20969;-79
2023/11/17 03:02:03;;;;;;;0.30;0.30;;;5.30;99.90;;;;;;5093668;28;20534;-79
2023/11/17 03:04:30;;;;;;;0.40;0.30;;;5.40;99.90;;;;;;5093321;28;21175;-79
2023/11/17 03:07:01;;;;;;;0.60;0.50;;;5.40;99.90;;;;;;5094389;28;20916;-79
2023/11/17 03:09:29;;;;;;;0.40;0.30;;;5.40;99.90;;;;;;5093822;28;20428;-79
2023/11/17 03:11:59;;;;;;;0.30;0.30;;;5.30;99.90;;;;;;5093530;28;20444;-79
2023/11/17 03:14:26;;;;;;;0.30;0.30;;;5.30;99.90;;;;;;5093058;28;20840;-79
2023/11/17 03:16:53;;;;;;;0.63;0.60;;;5.40;99.90;;;;;;5095037;28;20451;-79
2023/11/17 03:19:23;;;;;;;0.30;0.30;;;5.40;99.90;;;;;;5097433;28;20451;-79
2023/11/17 03:21:54;;;;;;;0.70;0.30;;;5.40;99.90;;;;;;5097768;28;20501;-79
2023/11/17 03:24:23;;;;;;;0.30;0.30;;;5.30;99.90;;;;;;5097301;28;20544;-79
2023/11/17 03:26:52;;;;;;;0.40;0.20;;;5.30;99.90;;;;;;5098120;28;20439;-79
2023/11/17 03:29:19;;;;;;;0.40;0.30;;;5.30;99.90;;;;;;5097603;28;20870;-79
2023/11/17 03:31:49;;;;;;;0.37;0.27;;;5.30;99.90;;;;;;5097591;28;20443;-79
2023/11/17 03:34:18;;;;;;;0.40;0.30;;;5.30;99.90;;;;;;5097157;28;20886;-79
2023/11/17 03:36:46;;;;;;;0.30;0.30;;;5.30;99.90;;;;;;5097058;28;20534;-79
2023/11/17 03:39:13;;;;;;;0.47;0.40;;;5.30;99.90;;;;;;5098168;28;20502;-79
2023/11/17 03:41:40;;;;;;;0.40;0.30;;;5.20;99.90;;;;;;5097226;28;20817;-79
2023/11/17 03:44:08;;;;;;;0.40;0.30;;;5.20;99.90;;;;;;5096952;28;20487;-79
2023/11/17 03:46:35;;;;;;;1.23;0.30;;;5.20;99.90;;;;;;5097025;28;20497;-79
2023/11/17 03:49:02;;;;;;;0.30;0.20;;;5.20;99.90;;;;;;5096714;28;20458;-79
2023/11/17 03:51:29;;;;;;;0.30;0.30;;;5.20;99.90;;;;;;5096985;28;20451;-79
2023/11/17 03:53:57;;;;;;;0.60;0.40;;;5.20;99.90;;;;;;5096874;28;20440;-79
2023/11/17 03:56:24;;;;;;;0.30;0.30;;;5.20;99.90;;;;;;5097538;28;20483;-79
2023/11/17 03:58:51;;;;;;;0.30;0.30;;;5.20;99.90;;;;;;5097249;28;20447;-79
2023/11/17 04:01:18;;;;;;;0.30;0.30;;;5.20;99.90;;;;;;5096853;28;20828;-79
2023/11/17 04:03:46;;;;;;;0.50;0.30;;;5.20;99.90;;;;;;5096639;28;20452;-79
2023/11/17 04:06:12;;;;;;;0.30;0.30;;;5.20;99.90;;;;;;5096652;28;20497;-79
2023/11/17 04:08:39;;;;;;;0.30;0.20;;;5.20;99.90;;;;;;5096315;28;20432;-79
2023/11/17 04:11:13;;;;;;;0.50;0.50;;;5.20;99.90;;;;;;5096621;28;20450;-79
2023/11/17 04:13:41;;;;;;;0.40;0.30;;;5.20;99.90;;;;;;5096766;28;20503;-79
2023/11/17 04:16:09;;;;;;;0.30;0.30;;;5.20;99.90;;;;;;5096649;28;20476;-79
2023/11/17 04:18:35;;;;;;;0.30;0.30;;;5.20;99.90;;;;;;5096470;28;20444;-79
2023/11/17 04:21:02;;;;;;;0.33;0.33;;;5.20;99.90;;;;;;5096402;28;20447;-79
2023/11/17 04:23:29;;;;;;;0.40;0.30;;;5.10;99.90;;;;;;5096430;28;20444;-79
2023/11/17 04:25:55;;;;;;;0.30;0.30;;;5.20;99.90;;;;;;5095919;28;20512;-79
2023/11/17 04:28:23;;;;;;;0.30;0.30;;;5.20;99.90;;;;;;5095341;28;20443;-79
2023/11/17 04:30:51;;;;;;;0.30;0.20;;;5.20;99.90;;;;;;5096276;28;20440;-79
2023/11/17 04:33:18;;;;;;;0.30;0.30;;;5.20;99.90;;;;;;5096137;28;20454;-79
2023/11/17 04:35:45;;;;;;;0.30;0.30;;;5.20;99.90;;;;;;5095786;28;20476;-79
2023/11/17 04:38:13;;;;;;;0.30;0.30;;;5.20;99.90;;;;;;5096127;28;20479;-79
2023/11/17 04:40:39;;;;;;;0.30;0.27;;;5.20;99.90;;;;;;5096026;28;20818;-79
2023/11/17 04:43:06;;;;;;;0.30;0.30;;;5.20;99.90;;;;;;5095820;28;20458;-79
2023/11/17 04:45:36;;;;;;;0.37;0.30;;;5.20;99.90;;;;;;5096397;28;20470;-78
2023/11/17 04:48:04;;;;;;;0.30;0.20;;;5.20;99.90;;;;;;5096111;28;20448;-79
2023/11/17 04:50:31;;;;;;;0.30;0.30;;;5.20;99.90;;;;;;5096160;28;20471;-79
2023/11/17 04:52:58;;;;;;;0.30;0.30;;;5.20;99.90;;;;;;5095645;28;20808;-79
2023/11/17 04:55:25;;;;;;;0.30;0.30;;;5.20;99.90;;;;;;5095363;28;20479;-79
2023/11/17 04:57:52;;;;;;;0.30;0.30;;;5.10;99.90;;;;;;5095742;28;20455;-79
2023/11/17 05:00:20;;;;;;;0.30;0.30;;;5.10;99.90;;;;;;5096202;28;20816;-79
2023/11/17 05:02:48;;;;;;;0.40;0.30;;;5.10;99.90;;;;;;5095944;28;20451;-79
2023/11/17 05:05:15;;;;;;;0.30;0.30;;;5.10;99.90;;;;;;5095719;28;20462;-79
2023/11/17 05:07:44;;;;;;;0.40;0.40;;;5.10;99.90;;;;;;5095663;28;20444;-79
2023/11/17 05:10:11;;;;;;;0.30;0.30;;;5.10;99.90;;;;;;5095657;28;20448;-79
2023/11/17 05:12:39;;;;;;;0.87;0.30;;;4.90;99.90;;;;;;5095723;28;21001;-79
2023/11/17 05:15:07;;;;;;;0.30;0.30;;;5.00;99.90;;;;;;5095366;28;20484;-79
2023/11/17 05:17:43;;;;;;;0.30;0.27;;;4.90;99.90;;;;;;5097179;28;20452;-77
2023/11/17 05:20:13;;;;;;;0.40;0.37;;;4.90;99.90;;;;;;5100313;28;20439;-78
2023/11/17 05:22:40;;;;;;;0.30;0.30;;;4.90;99.90;;;;;;5102078;28;20994;-78
2023/11/17 05:25:08;;;;;;;0.30;0.30;;;5.00;99.90;;;;;;5101897;28;20480;-78
2023/11/17 05:27:34;;;;;;;0.30;0.30;;;4.90;99.90;;;;;;5099427;28;20439;-78
2023/11/17 05:30:04;;;;;;;0.30;0.30;;;5.00;99.90;;;;;;5095501;28;20455;-78
2023/11/17 05:32:31;;;;;;;0.30;0.30;;;5.00;99.90;;;;;;5095417;28;20489;-78
2023/11/17 05:34:58;;;;;;;0.30;0.30;;;5.00;99.90;;;;;;5094793;28;20479;-77
2023/11/17 05:37:25;;;;;;;0.30;0.30;;;5.10;99.90;;;;;;5095107;28;20444;-77
2023/11/17 05:39:51;;;;;;;0.33;0.27;;;5.00;99.90;;;;;;5094769;28;20455;-77
2023/11/17 05:42:18;;;;;;;0.30;0.20;;;4.90;99.90;;;;;;5094958;28;20444;-77
2023/11/17 05:44:45;;;;;;;0.30;0.20;;;4.90;99.90;;;;;;5095354;28;20475;-78
2023/11/17 05:47:12;;;;;;;0.30;0.27;;;4.90;99.90;;;;;;5094915;28;20806;-78
2023/11/17 05:49:43;;;;;;;0.30;0.30;;;4.90;99.90;;;;;;5094783;28;20519;-78
2023/11/17 05:52:09;;;;;;;0.30;0.20;;;4.80;99.90;;;;;;5094479;28;20948;-78
2023/11/17 05:54:43;;;;;;;0.30;0.30;;;4.80;99.90;;;;;;5094431;28;21014;-78
2023/11/17 05:57:11;;;;;;;0.40;0.40;;;4.80;99.90;;;;;;5094805;28;20545;-78
2023/11/17 05:59:37;;;;;;;0.30;0.27;;;4.80;99.90;;;;;;5094349;28;20440;-78
2023/11/17 06:02:04;;;;;;;0.40;0.30;;;4.90;99.90;;;;;;5094648;28;20440;-78
2023/11/17 06:04:31;;;;;;;0.93;0.40;;;4.90;99.90;;;;;;5094464;28;20468;-78
2023/11/17 06:06:58;;;;;;;0.30;0.30;;;4.80;99.90;;;;;;5094291;28;20432;-78
2023/11/17 06:09:25;;;;;;;3.47;0.67;;;4.90;99.90;;;;;;5094996;28;20454;-78
2023/11/17 06:11:55;;;;;;;0.30;0.20;;;4.80;99.90;;;;;;5094678;28;20444;-78
2023/11/17 06:14:21;;;;;;;0.30;0.30;;;4.80;99.90;;;;;;5094739;28;20462;-78
2023/11/17 06:16:51;;;;;;;1.13;0.30;;;4.70;99.90;;;;;;5094201;28;20484;-78
2023/11/17 06:19:18;;;;;;;0.70;0.50;;;4.70;99.90;;;;;;5094334;28;20838;-78
2023/11/17 06:21:46;;;;;;;0.30;0.30;;;4.70;99.90;;;;;;5094195;28;20436;-78
2023/11/17 06:24:14;;;;;;;0.40;0.40;;;4.80;99.90;;;;;;5093933;28;20549;-78
2023/11/17 06:26:41;;;;;;;0.30;0.30;;;4.90;99.90;;;;;;5093908;28;20522;-78
2023/11/17 06:29:09;;;;;;;0.40;0.40;;;4.80;99.90;;;;;;5095390;28;20823;-78
2023/11/17 06:31:36;;;;;;;0.30;0.30;;;4.80;99.90;;;;;;5093918;28;20440;-78
2023/11/17 06:34:04;;;;;;;0.30;0.27;;;4.80;99.90;;;;;;5093818;28;20439;-78
2023/11/17 06:36:30;;;;;;;0.30;0.30;;;4.80;99.90;;;;;;5093903;28;20486;-78
2023/11/17 06:38:57;;;;;;;0.30;0.20;;;4.70;99.90;;;;;;5093778;28;20436;-78
2023/11/17 06:41:24;;;;;;;0.30;0.30;;;4.80;99.90;;;;;;5093676;28;20447;-78
2023/11/17 06:43:52;;;;;;;1.53;0.33;;;4.90;99.90;;;;;;5093689;28;20435;-78
2023/11/17 06:46:20;;;;;;;2.20;0.30;;;4.90;99.90;;;;;;5093735;28;20440;-78
2023/11/17 06:48:47;;;;;;;0.40;0.30;;;4.90;99.90;;;;;;5093931;28;20437;-78
2023/11/17 06:51:14;;;;;;;0.30;0.30;;;4.90;99.90;;;;;;5093034;28;20458;-78
2023/11/17 06:53:40;;;;;;;0.30;0.30;;;4.90;99.90;;;;;;5093676;28;20447;-78
2023/11/17 06:56:07;;;;;;;0.30;0.30;;;4.90;99.90;;;;;;5093259;28;20995;-78
2023/11/17 06:58:34;;;;;;;0.73;0.30;;;5.00;99.90;;;;;;5093294;28;20932;-78
2023/11/17 07:01:01;;;;;;;1.17;1.17;;;4.90;99.90;;;;;;5093617;28;20439;-78
2023/11/17 07:03:29;;;;;;;0.30;0.20;;;4.90;99.90;;;;;;5093545;28;20880;-78
2023/11/17 07:05:56;;;;;;;0.50;0.40;;;4.90;99.90;;;;;;5093378;28;20456;-78
2023/11/17 07:08:22;;;;;;;0.30;0.20;;;4.80;99.90;;;;;;5093444;28;20807;-78
2023/11/17 07:10:51;;;;;;;0.30;0.30;;;4.70;99.90;;;;;;5093427;28;20444;-77
2023/11/17 07:13:18;;;;;;;0.30;0.30;;;4.80;99.90;;;;;;5094816;28;21029;-79
2023/11/17 07:15:45;;;;;;;0.30;0.30;;;4.90;99.90;;;;;;5093031;28;20480;-79
2023/11/17 07:18:12;;;;;;;0.30;0.27;;;4.90;99.90;;;;;;5093419;28;20545;-78
2023/11/17 07:20:40;;;;;;;0.40;0.40;;;4.90;99.90;;;;;;5093333;28;20444;-78
2023/11/17 07:23:08;;;;;;;0.50;0.50;;;4.90;99.90;;;;;;5093342;28;20451;-78
2023/11/17 07:25:35;;;;;;;0.40;0.30;;;5.00;99.90;;;;;;5092858;28;20521;-78
2023/11/17 07:28:03;;;;;;;0.30;0.30;;;5.00;99.90;;;;;;5093237;28;20444;-78
2023/11/17 07:30:30;;;;;;;0.40;0.30;;;5.00;99.90;;;;;;5092959;28;20484;-78
2023/11/17 07:32:57;;;;;;;0.50;0.40;;;5.00;99.90;;;;;;5093274;28;20531;-78
2023/11/17 07:35:26;;;;;;;0.30;0.27;;;5.00;99.90;;;;;;5093761;28;20467;-78
2023/11/17 07:37:54;;;;;;;0.30;0.20;;;5.10;99.90;;;;;;5093355;28;20944;-79
2023/11/17 07:40:21;;;;;;;0.30;0.20;;;5.10;99.90;;;;;;5093190;28;20443;-78
2023/11/17 07:42:48;;;;;;;0.30;0.30;;;5.10;99.90;;;;;;5092885;28;20440;-78
2023/11/17 07:45:17;;;;;;;0.33;0.33;;;5.10;99.90;;;;;;5093013;28;20472;-78
2023/11/17 07:47:44;;;;;;;0.40;0.40;;;5.10;99.90;;;;;;5093350;28;20531;-78
2023/11/17 07:50:13;;;;;;;0.73;0.60;;;5.20;99.90;;;;;;5094086;28;20948;-78
2023/11/17 07:52:42;;;;;;;0.40;0.37;;;5.20;99.90;;;;;;5093959;28;20444;-78
2023/11/17 07:55:13;;;;;;;2.73;0.60;;;5.30;99.90;;;;;;5092871;28;20494;-78
2023/11/17 07:57:40;;;;;;;0.83;0.30;;;5.30;99.90;;;;;;5093491;28;20463;-79
2023/11/17 08:00:17;;;;;;;1.37;0.33;;;5.30;99.90;;;;;;5093461;28;20447;-79
2023/11/17 08:02:44;;;;;;;0.50;0.50;;;5.30;99.90;;;;;;5094147;28;20524;-79
2023/11/17 08:05:11;;;;;;;0.60;0.50;;;5.30;99.90;;;;;;5096351;28;20999;-79
2023/11/17 08:07:37;;;;;;;0.70;0.50;;;5.30;99.90;;;;;;5096681;28;20440;-79
2023/11/17 08:10:06;;;;;;;0.40;0.40;;;5.30;99.90;;;;;;5096488;28;20479;-79
2023/11/17 08:12:34;;;;;;;0.30;0.30;;;5.40;99.90;;;;;;5096625;28;20454;-79
2023/11/17 08:15:01;;;;;;;0.50;0.40;;;5.30;99.90;;;;;;5096563;28;20467;-79
2023/11/17 08:17:28;;;;;;;0.30;0.30;;;5.40;99.90;;;;;;5096640;28;20482;-79
2023/11/17 08:19:55;;;;;;;0.67;0.30;;;5.40;99.90;;;;;;5096420;28;20454;-79
2023/11/17 08:22:22;;;;;;;0.70;0.30;;;5.40;99.90;;;;;;5096411;28;20497;-79
2023/11/17 08:24:48;;;;;;;0.70;0.47;;;5.40;99.90;;;;;;5095774;28;20984;-79
2023/11/17 08:27:15;;;;;;;0.43;0.43;;;5.40;99.90;;;;;;5096010;28;20440;-79
2023/11/17 08:29:43;;;;;;;3.70;1.07;;;5.40;99.90;;;;;;5096303;28;20444;-79
2023/11/17 08:32:10;;;;;;;0.30;0.30;;;5.40;99.90;;;;;;5095795;28;20937;-79
2023/11/17 08:34:38;;;;;;;0.30;0.30;;;5.40;99.90;;;;;;5095990;28;20496;-79
2023/11/17 08:37:05;;;;;;;0.30;0.30;;;5.40;99.90;;;;;;5096041;28;21007;-79
2023/11/17 08:39:34;;;;;;;0.40;0.30;;;5.40;99.90;;;;;;5096171;28;20455;-79
2023/11/17 08:42:00;;;;;;;0.40;0.30;;;5.50;99.90;;;;;;5096028;28;20444;-79
2023/11/17 08:44:27;;;;;;;0.70;0.53;;;5.60;99.90;;;;;;5095951;28;20538;-79
2023/11/17 08:46:56;;;;;;;0.50;0.40;;;5.60;99.90;;;;;;5095994;28;20432;-79
2023/11/17 08:49:23;;;;;;;0.30;0.30;;;5.60;99.90;;;;;;5095986;28;20448;-79
2023/11/17 08:51:50;;;;;;;0.30;0.30;;;5.70;99.90;;;;;;5095858;28;20451;-78
2023/11/17 08:54:17;;;;;;;0.40;0.40;;;5.70;99.90;;;;;;5095937;28;20919;-78
2023/11/17 08:56:47;;;;;;;0.50;0.50;;;5.60;99.90;;;;;;5096934;28;20460;-79
2023/11/17 08:59:14;;;;;;;0.40;0.40;;;5.70;99.90;;;;;;5095960;28;20456;-79
2023/11/17 09:01:39;;;;;;;0.30;0.30;;;5.80;99.90;;;;;;5095915;28;20501;-79
2023/11/17 09:04:07;;;;;;;0.47;0.47;;;5.90;99.90;;;;;;5095588;28;20460;-79
2023/11/17 09:06:35;;;;;;;1.57;0.30;;;5.90;99.90;;;;;;5095485;28;20205;-79
2023/11/17 09:09:03;;;;;;;0.30;0.30;;;5.90;99.90;;;;;;5095607;28;20453;-79
2023/11/17 09:11:33;;;;;;;0.60;0.53;;;6.00;99.90;;;;;;5095382;28;20517;-79
2023/11/17 09:13:59;;;;;;;0.30;0.20;;;6.00;99.90;;;;;;5097976;28;20436;-78
2023/11/17 09:16:26;;;;;;;0.40;0.30;;;6.10;99.90;;;;;;5095326;28;20482;-79
2023/11/17 09:18:53;;;;;;;0.30;0.20;;;6.10;99.90;;;;;;5097053;28;20971;-79
2023/11/17 09:21:21;;;;;;;1.60;0.33;;;6.10;99.90;;;;;;5095242;28;20455;-79
2023/11/17 09:23:48;;;;;;;0.30;0.30;;;6.20;99.90;;;;;;5094892;28;20444;-79
2023/11/17 09:26:15;;;;;;;0.60;0.40;;;6.10;99.90;;;;;;5095181;28;20443;-79
2023/11/17 09:28:41;;;;;;;0.40;0.30;;;6.10;99.90;;;;;;5095179;28;20788;-79
2023/11/17 09:31:08;;;;;;;0.40;0.30;;;6.10;99.90;;;;;;5095028;28;20444;-79
2023/11/17 09:33:35;;;;;;;0.30;0.20;;;6.10;99.90;;;;;;5094977;28;20463;-79
2023/11/17 09:36:01;;;;;;;0.30;0.30;;;6.10;99.90;;;;;;5094776;28;20468;-79
2023/11/17 09:38:30;;;;;;;0.30;0.30;;;6.10;99.90;;;;;;5095002;28;20440;-79
2023/11/17 09:40:57;;;;;;;0.40;0.40;;;6.10;99.90;;;;;;5096004;28;20440;-79
2023/11/17 09:43:24;;;;;;;0.50;0.50;;;6.10;99.90;;;;;;5097600;28;20443;-79
2023/11/17 09:45:52;;;;;;;0.37;0.33;;;6.00;99.90;;;;;;5095765;28;20475;-79
2023/11/17 09:48:20;;;;;;;0.30;0.30;;;6.20;99.90;;;;;;5094657;28;20440;-79
2023/11/17 09:50:50;;;;;;;0.30;0.30;;;6.20;99.90;;;;;;5094750;28;20530;-79
2023/11/17 09:53:18;;;;;;;0.40;0.30;;;6.40;99.90;;;;;;5094792;28;20501;-79
2023/11/17 09:55:48;;;;;;;10.80;1.23;;;6.40;99.90;;;;;;5094678;28;20467;-79
2023/11/17 09:58:15;;;;;;;0.30;0.30;;;6.40;99.90;;;;;;5094727;28;20503;-79
2023/11/17 10:00:45;;;;;;;0.40;0.30;;;6.40;99.90;;;;;;5094291;28;20963;-79
2023/11/17 10:03:13;;;;;;;0.40;0.30;;;6.40;99.90;;;;;;5094685;28;20459;-79
2023/11/17 10:05:41;;;;;;;0.33;0.30;;;6.30;99.90;;;;;;5094407;28;20467;-79
2023/11/17 10:08:11;;;;;;;0.70;0.40;;;6.30;99.90;;;;;;5094776;28;20436;-79
2023/11/17 10:10:42;;;;;;;2.10;0.47;;;6.20;99.90;;;;;;5097783;28;20431;-79
2023/11/17 10:13:11;;;;;;;0.37;0.23;;;6.20;99.90;;;;;;5096512;28;20447;-79
2023/11/17 10:15:40;;;;;;;0.30;0.23;;;6.10;99.90;;;;;;5094428;28;20456;-79
2023/11/17 10:18:08;;;;;;;0.30;0.30;;;6.10;99.90;;;;;;5094187;28;20571;-79
2023/11/17 10:20:37;;;;;;;0.50;0.40;;;6.20;99.90;;;;;;5094604;28;20439;-79
2023/11/17 10:23:04;;;;;;;0.40;0.30;;;6.20;99.90;;;;;;5093849;28;20968;-79
2023/11/17 10:25:32;;;;;;;0.30;0.30;;;6.20;99.90;;;;;;5093296;28;20479;-79
2023/11/17 10:28:00;;;;;;;0.30;0.20;;;6.30;99.90;;;;;;5093504;28;20812;-79
2023/11/17 10:30:30;;;;;;;0.30;0.30;;;6.30;99.90;;;;;;5094964;28;20792;-79
2023/11/17 10:33:06;;;;;;;0.30;0.30;;;6.40;99.90;;;;;;5094241;28;20448;-79
2023/11/17 10:35:34;;;;;;;0.30;0.30;;;6.30;99.90;;;;;;5094210;28;20475;-78
2023/11/17 10:38:04;;;;;;;0.97;0.77;;;6.40;99.90;;;;;;5097660;28;20544;-79
2023/11/17 10:40:33;;;;;;;0.60;0.30;;;6.30;99.90;;;;;;5094546;28;20428;-79
2023/11/17 10:43:06;;;;;;;0.30;0.30;;;6.40;99.90;;;;;;5093945;28;20508;-79
2023/11/17 10:45:36;;;;;;;0.40;0.40;;;6.50;99.90;;;;;;5094063;28;20471;-79
2023/11/17 10:48:06;;;;;;;0.30;0.20;;;6.50;99.90;;;;;;5093956;28;20448;-79
2023/11/17 10:50:34;;;;;;;0.30;0.30;;;6.50;99.90;;;;;;5093745;28;20455;-79
2023/11/17 10:53:14;;;;;;;0.50;0.50;;;6.60;99.90;;;;;;5093802;28;20592;-79
2023/11/17 10:55:42;;;;;;;0.30;0.30;;;6.60;99.90;;;;;;5093696;28;20873;-79
2023/11/17 10:58:14;;;;;;;0.30;0.20;;;6.60;99.90;;;;;;5093375;28;21070;-79
2023/11/17 11:00:47;;;;;;;1.10;0.67;;;6.60;99.90;;;;;;5093698;28;20425;-79
2023/11/17 11:03:15;;;;;;;0.30;0.23;;;6.60;99.90;;;;;;5093980;28;20424;-79
2023/11/17 11:05:43;;;;;;;0.30;0.30;;;6.60;99.90;;;;;;5095161;28;20902;-79
2023/11/17 11:08:17;;;;;;;0.50;0.30;;;6.60;99.90;;;;;;5093908;28;20431;-79
2023/11/17 11:10:53;;;;;;;0.80;0.60;;;6.60;99.90;;;;;;5093727;28;20416;-79
2023/11/17 11:13:27;;;;;;;0.30;0.30;;;6.70;99.90;;;;;;5093670;28;20455;-79
2023/11/17 11:16:00;;;;;;;0.40;0.40;;;6.70;99.90;;;;;;5093426;28;20464;-79
2023/11/17 11:18:32;;;;;;;0.40;0.40;;;6.80;99.90;;;;;;5093598;28;20882;-79
2023/11/17 11:20:59;;;;;;;0.30;0.30;;;6.80;99.90;;;;;;5093734;28;20428;-79
2023/11/17 11:23:26;;;;;;;0.30;0.30;;;6.90;99.90;;;;;;5093370;28;20455;-79
2023/11/17 11:25:55;;;;;;;0.40;0.30;;;6.90;99.90;;;;;;5107310;22;21506;-80
2023/11/17 11:28:22;;;;;;;0.30;0.27;;;6.90;99.90;;;;;;5093630;28;20827;-80
2023/11/17 11:30:50;;;;;;;0.60;0.30;;;7.00;99.90;;;;;;5093679;28;20435;-80
2023/11/17 11:33:20;;;;;;;0.40;0.30;;;7.00;99.90;;;;;;5093607;28;20498;-80
2023/11/17 11:35:47;;;;;;;0.40;0.30;;;7.00;99.90;;;;;;5093865;28;20468;-80
2023/11/17 11:38:14;;;;;;;0.30;0.30;;;7.00;99.90;;;;;;5095365;28;20475;-80
2023/11/17 11:40:43;;;;;;;0.33;0.27;;;7.00;99.90;;;;;;5097538;28;20454;-79
2023/11/17 11:43:10;;;;;;;0.30;0.30;;;6.80;99.90;;;;;;5097214;28;20820;-79
2023/11/17 11:45:38;;;;;;;0.40;0.30;;;6.80;99.90;;;;;;5097141;28;20459;-79
2023/11/17 11:48:07;;;;;;;0.40;0.30;;;6.80;99.90;;;;;;5096807;28;20439;-79
2023/11/17 11:50:38;;;;;;;0.60;0.40;;;6.80;99.90;;;;;;5096740;28;20443;-79
2023/11/17 11:53:24;;;;;;;0.30;0.30;;;6.80;99.90;;;;;;5096733;28;20428;-79
2023/11/17 11:55:53;;;;;;;0.30;0.30;;;6.90;99.90;;;;;;5097285;28;20834;-79
2023/11/17 11:58:22;;;;;;;0.30;0.20;;;6.90;99.90;;;;;;5097014;28;20532;-79
2023/11/17 12:00:52;;;;;;;0.30;0.30;;;6.90;99.90;;;;;;5096734;28;20440;-79
2023/11/17 12:03:18;;;;;;;1.07;0.40;;;6.90;99.90;;;;;;5096925;28;20523;-79
2023/11/17 12:05:48;;;;;;;0.30;0.30;;;6.80;99.90;;;;;;5096654;28;20896;-79
2023/11/17 12:08:23;;;;;;;0.30;0.20;;;6.80;99.90;;;;;;5096691;28;20228;-79
2023/11/17 12:10:54;;;;;;;0.30;0.20;;;6.80;99.90;;;;;;5096780;28;20443;-81
2023/11/17 12:13:36;;;;;;;0.40;0.30;;;6.70;99.90;;;;;;5097011;28;20428;-80
2023/11/17 12:16:06;;;;;;;1.77;0.37;;;6.80;99.90;;;;;;5096740;28;20820;-80
2023/11/17 12:18:34;;;;;;;0.30;0.27;;;6.80;99.90;;;;;;5096646;28;20498;-80
2023/11/17 12:21:16;;;;;;;0.30;0.20;;;6.70;99.90;;;;;;5096736;28;20432;-80
2023/11/17 12:23:49;;;;;;;0.30;0.20;;;6.80;99.90;;;;;;5096656;28;20428;-80
2023/11/17 12:26:17;;;;;;;0.30;0.20;;;6.80;99.90;;;;;;5096075;28;20471;-80
2023/11/17 12:28:44;;;;;;;0.30;0.20;;;6.80;99.90;;;;;;5096322;28;20963;-80
2023/11/17 12:31:13;;;;;;;0.30;0.20;;;6.80;99.90;;;;;;5096535;28;20497;-80
2023/11/17 12:33:41;;;;;;;0.30;0.30;;;6.80;99.90;;;;;;5096349;28;20444;-80
2023/11/17 12:36:10;;;;;;;0.30;0.20;;;6.90;99.90;;;;;;5096138;28;20486;-80
2023/11/17 12:38:39;;;;;;;0.30;0.20;;;6.90;99.90;;;;;;5096304;28;20833;-80
2023/11/17 12:41:09;;;;;;;0.30;0.27;;;6.90;99.90;;;;;;5096297;28;20527;-80
2023/11/17 12:43:37;;;;;;;0.30;0.20;;;7.00;99.90;;;;;;5096501;28;20432;-80
2023/11/17 12:46:05;;;;;;;0.30;0.20;;;7.10;99.90;;;;;;5100186;28;20463;-79
2023/11/17 12:48:32;;;;;;;0.30;0.20;;;7.30;99.90;;;;;;5113902;28;20814;-80
2023/11/17 12:51:01;;;;;;;0.30;0.20;;;7.30;99.90;;;;;;5095575;28;20489;-80
2023/11/17 12:53:41;;;;;;;0.40;0.30;;;7.30;99.90;;;;;;5096516;28;20447;-80
2023/11/17 12:56:09;;;;;;;0.30;0.30;;;7.30;99.90;;;;;;5095494;28;20459;-79
2023/11/17 12:58:36;;;;;;;0.30;0.20;;;7.20;99.90;;;;;;5095917;28;20537;-79
2023/11/17 13:01:14;;;;;;;0.57;0.57;;;7.10;99.90;;;;;;5095764;28;20448;-80
2023/11/17 13:03:41;;;;;;;0.30;0.30;;;7.10;99.90;;;;;;5095579;28;20456;-79